Time;durP1;ratioP1;P1;durP2;ratioP2;P2;SDS_P1;SDS_P2;PMS_P1;PMS_P2;Temp;Humidity;BMP_temperature;BMP_pressure;BME280_temperature;BME280_humidity;BME280_pressure;Samples;Min_cycle;Max_cycle;Signal;HPM_P1;HPM_P2
2020/12/05 00:00:58;;;;;;;18.58;8.48;;;;;;;-0.72;92.57;102100.00;2584087;55;20124;-73
2020/12/05 00:03:25;;;;;;;15.85;8.18;;;;;;;-0.72;92.78;102105.25;2584278;55;20604;-76
2020/12/05 00:05:52;;;;;;;13.20;6.15;;;;;;;-0.70;92.72;102110.50;2583931;55;20165;-72
2020/12/05 00:08:19;;;;;;;19.87;9.68;;;;;;;-0.66;92.67;102106.97;2584049;55;20118;-76
2020/12/05 00:10:47;;;;;;;17.70;6.75;;;;;;;-0.63;92.37;102103.47;2579181;55;20161;-72
2020/12/05 00:13:15;;;;;;;16.00;7.65;;;;;;;-0.66;92.64;102103.50;2578712;55;20746;-72
2020/12/05 00:15:42;;;;;;;15.95;8.15;;;;;;;-0.67;92.97;102099.13;2578739;55;20119;-72
2020/12/05 00:18:10;;;;;;;13.65;7.28;;;;;;;-0.69;92.49;102096.50;2579172;55;20135;-72
2020/12/05 00:20:38;;;;;;;18.15;7.55;;;;;;;-0.66;93.41;102093.88;2578693;55;20132;-72
2020/12/05 00:23:05;;;;;;;15.70;8.18;;;;;;;-0.64;93.10;102096.47;2578812;55;20114;-76
2020/12/05 00:25:33;;;;;;;11.43;6.87;;;;;;;-0.62;92.94;102095.59;2578794;55;20106;-76
2020/12/05 00:28:00;;;;;;;21.55;7.62;;;;;;;-0.59;93.20;102102.59;2578790;55;20147;-72
2020/12/05 00:30:28;;;;;;;16.90;7.93;;;;;;;-0.62;93.30;102103.47;2578361;55;20105;-73
2020/12/05 00:32:58;;;;;;;15.68;7.57;;;;;;;-0.59;92.47;102077.22;2578723;55;20114;-73
2020/12/05 00:35:27;;;;;;;14.13;7.07;;;;;;;-0.58;92.58;102072.88;2578729;55;20113;-72
2020/12/05 00:37:55;;;;;;;18.37;7.65;;;;;;;-0.56;92.15;102078.97;2573691;55;20125;-77
2020/12/05 00:40:23;;;;;;;14.65;7.12;;;;;;;-0.60;92.93;102099.06;2578458;55;20123;-72
2020/12/05 00:42:50;;;;;;;16.45;5.87;;;;;;;-0.56;92.35;102082.44;2578711;55;20105;-77
2020/12/05 00:45:19;;;;;;;14.43;7.28;;;;;;;-0.59;92.78;102068.50;2578585;55;20122;-76
2020/12/05 00:47:46;;;;;;;15.55;7.75;;;;;;;-0.51;92.10;102077.16;2578812;55;20623;-72
2020/12/05 00:50:14;;;;;;;17.67;7.55;;;;;;;-0.53;93.33;102071.06;2578738;55;20113;-74
2020/12/05 00:52:43;;;;;;;13.13;6.80;;;;;;;-0.48;92.76;102077.16;2578928;55;20114;-73
2020/12/05 00:55:11;;;;;;;14.23;7.07;;;;;;;-0.49;92.61;102069.28;2578517;55;20657;-76
2020/12/05 00:57:38;;;;;;;11.88;6.10;;;;;;;-0.50;92.94;102076.31;2578800;55;20668;-77
2020/12/05 01:00:07;;;;;;;11.75;6.85;;;;;;;-0.54;92.56;102057.97;2573572;55;20131;-77
2020/12/05 01:02:35;;;;;;;12.70;6.30;;;;;;;-0.49;93.11;102071.91;2578693;55;20121;-76
2020/12/05 01:05:02;;;;;;;15.20;7.18;;;;;;;-0.49;93.48;102064.94;2578623;55;20125;-77
2020/12/05 01:07:30;;;;;;;14.05;7.03;;;;;;;-0.47;93.44;102067.53;2578485;55;20495;-77
2020/12/05 01:09:58;;;;;;;14.30;7.05;;;;;;;-0.43;92.67;102067.50;2578863;55;20113;-77
2020/12/05 01:12:25;;;;;;;10.63;6.07;;;;;;;-0.47;93.26;102068.41;2578812;55;20123;-72
2020/12/05 01:14:54;;;;;;;15.05;7.97;;;;;;;-0.46;93.38;102072.78;2578714;55;20118;-77
2020/12/05 01:17:25;;;;;;;13.10;6.62;;;;;;;-0.40;93.17;102063.09;2578450;55;20135;-77
2020/12/05 01:19:52;;;;;;;13.37;6.63;;;;;;;-0.40;92.69;102070.97;2578529;55;20109;-77
2020/12/05 01:22:20;;;;;;;14.27;7.05;;;;;;;-0.42;93.20;102076.25;2578527;55;20109;-76
2020/12/05 01:24:48;;;;;;;11.77;5.55;;;;;;;-0.37;92.71;102068.34;2578526;55;20112;-72
2020/12/05 01:27:16;;;;;;;12.23;6.30;;;;;;;-0.34;93.61;102053.44;2578538;55;20155;-77
2020/12/05 01:29:44;;;;;;;11.48;6.18;;;;;;;-0.31;93.15;102063.03;2578445;55;20789;-72
2020/12/05 01:32:12;;;;;;;13.30;6.28;;;;;;;-0.30;93.07;102070.91;2578470;55;20114;-72
2020/12/05 01:34:39;;;;;;;11.43;5.45;;;;;;;-0.33;93.44;102054.31;2578450;55;20127;-73
2020/12/05 01:37:07;;;;;;;12.25;7.45;;;;;;;-0.27;92.87;102049.03;2578724;55;20644;-77
2020/12/05 01:39:34;;;;;;;12.18;6.35;;;;;;;-0.28;92.58;102047.28;2578586;55;20635;-73
2020/12/05 01:42:02;;;;;;;13.45;6.05;;;;;;;-0.24;92.66;102043.75;2578433;55;20117;-73
2020/12/05 01:44:31;;;;;;;12.02;6.60;;;;;;;-0.28;93.20;102052.53;2573384;55;20174;-72
2020/12/05 01:46:59;;;;;;;10.32;6.70;;;;;;;-0.28;93.21;102060.41;2578549;55;20113;-72
2020/12/05 01:49:27;;;;;;;13.05;6.95;;;;;;;-0.26;93.79;102050.75;2578529;55;20127;-77
2020/12/05 01:51:56;;;;;;;12.23;6.03;;;;;;;-0.25;93.60;102049.88;2578247;55;20649;-72
2020/12/05 01:54:23;;;;;;;12.27;7.10;;;;;;;-0.28;94.10;102061.25;2578271;55;20117;-72
2020/12/05 01:56:57;;;;;;;14.77;7.70;;;;;;;-0.21;93.17;102055.97;2578247;55;20116;-77
2020/12/05 01:59:25;;;;;;;12.43;6.85;;;;;;;-0.23;94.04;102063.84;2578348;55;20109;-73
2020/12/05 02:01:57;;;;;;;13.77;7.32;;;;;;;-0.22;94.14;102039.34;2578366;55;20679;-77
2020/12/05 02:04:28;;;;;;;9.73;5.72;;;;;;;-0.21;94.05;102048.09;2578994;55;20700;-72
2020/12/05 02:07:19;;;;;;;10.90;6.13;;;;;;;-0.20;94.16;102055.97;2578338;55;20123;-72
2020/12/05 02:09:51;;;;;;;12.75;6.55;;;;;;;-0.20;93.98;102055.97;2578554;55;20116;-77
2020/12/05 02:12:31;;;;;;;13.18;6.57;;;;;;;-0.14;94.30;102044.53;2578405;55;20117;-72
2020/12/05 02:15:05;;;;;;;13.15;6.15;;;;;;;-0.18;94.79;102040.19;2578562;55;20550;-72
2020/12/05 02:17:38;;;;;;;13.82;6.78;;;;;;;-0.22;94.51;102025.38;2578519;55;20382;-77
2020/12/05 02:20:08;;;;;;;16.20;7.07;;;;;;;-0.14;94.47;102036.69;2578389;55;20114;-77
2020/12/05 02:22:41;;;;;;;11.20;6.00;;;;;;;-0.15;94.82;102035.78;2578636;55;20134;-77
2020/12/05 02:25:11;;;;;;;14.23;6.95;;;;;;;-0.10;94.69;102037.50;2578520;55;20500;-76
2020/12/05 02:27:38;;;;;;;18.80;7.97;;;;;;;-0.18;94.91;102041.06;2578297;55;20135;-76
2020/12/05 02:30:11;;;;;;;14.93;7.37;;;;;;;-0.23;95.67;102037.59;2578378;55;20106;-76
2020/12/05 02:32:39;;;;;;;14.25;7.57;;;;;;;-0.25;95.46;102039.38;2578430;55;20136;-76
2020/12/05 02:35:07;;;;;;;16.23;7.55;;;;;;;-0.20;95.60;102040.22;2578464;55;20116;-76
2020/12/05 02:37:41;;;;;;;18.15;8.15;;;;;;;-0.16;95.78;102036.69;2578391;55;20628;-72
2020/12/05 02:40:10;;;;;;;13.77;8.13;;;;;;;-0.17;96.16;102045.44;2578324;55;20109;-73
2020/12/05 02:42:38;;;;;;;15.32;7.12;;;;;;;-0.20;95.78;102039.34;2573269;55;20113;-73
2020/12/05 02:45:10;;;;;;;16.52;9.57;;;;;;;-0.25;96.77;102034.13;2578580;55;20166;-77
2020/12/05 02:47:38;;;;;;;17.67;8.75;;;;;;;-0.29;97.10;102030.66;2578505;55;20109;-73
2020/12/05 02:50:06;;;;;;;16.20;8.13;;;;;;;-0.33;98.06;102035.94;2578279;55;20127;-77
2020/12/05 02:52:33;;;;;;;16.65;9.07;;;;;;;-0.34;98.01;102034.22;2578223;55;20478;-77
2020/12/05 02:55:01;;;;;;;13.55;7.10;;;;;;;-0.35;98.49;102040.34;2577931;55;20105;-76
2020/12/05 02:57:30;;;;;;;14.90;7.97;;;;;;;-0.36;98.12;102046.47;2577967;55;20154;-77
2020/12/05 02:59:57;;;;;;;16.58;8.38;;;;;;;-0.36;98.19;102031.59;2578102;55;20632;-73
2020/12/05 03:02:24;;;;;;;16.92;8.75;;;;;;;-0.33;98.51;102038.56;2578341;55;20116;-77
2020/12/05 03:04:52;;;;;;;17.00;7.62;;;;;;;-0.33;99.22;102054.31;2578209;55;20109;-76
2020/12/05 03:07:19;;;;;;;15.57;8.27;;;;;;;-0.34;98.82;102052.56;2578227;55;20631;-72
2020/12/05 03:09:47;;;;;;;18.37;8.32;;;;;;;-0.36;98.64;102049.94;2578593;55;20117;-77
2020/12/05 03:12:14;;;;;;;18.42;9.43;;;;;;;-0.33;99.20;102049.06;2578247;55;20157;-73
2020/12/05 03:14:42;;;;;;;17.30;8.30;;;;;;;-0.30;98.89;102043.78;2578174;55;20129;-77
2020/12/05 03:17:10;;;;;;;16.33;8.05;;;;;;;-0.28;99.21;102031.53;2578328;55;20124;-73
2020/12/05 03:19:37;;;;;;;17.95;9.73;;;;;;;-0.34;99.61;102036.84;2578163;55;20630;-73
2020/12/05 03:22:04;;;;;;;17.17;8.15;;;;;;;-0.36;99.49;102035.97;2578237;55;20120;-77
2020/12/05 03:24:32;;;;;;;18.30;9.38;;;;;;;-0.33;99.28;102041.19;2573164;55;20129;-77
2020/12/05 03:26:59;;;;;;;16.45;9.10;;;;;;;-0.36;99.72;102033.37;2578033;55;20117;-77
2020/12/05 03:29:26;;;;;;;13.07;7.28;;;;;;;-0.33;99.55;102034.22;2578111;55;20123;-77
2020/12/05 03:31:57;;;;;;;15.95;8.73;;;;;;;-0.34;99.12;102035.09;2578359;55;20149;-77
2020/12/05 03:34:25;;;;;;;17.70;9.50;;;;;;;-0.36;100.00;102034.22;2578163;55;20121;-73
2020/12/05 03:36:52;;;;;;;14.50;8.05;;;;;;;-0.28;99.43;102021.06;2578066;55;20157;-73
2020/12/05 03:39:19;;;;;;;15.13;7.55;;;;;;;-0.30;98.86;102028.03;2577999;55;20473;-76
2020/12/05 03:41:47;;;;;;;18.02;9.75;;;;;;;-0.27;99.02;102033.28;2578030;55;20161;-77
2020/12/05 03:44:14;;;;;;;18.45;9.45;;;;;;;-0.28;98.92;102037.66;2578263;55;20114;-76
2020/12/05 03:46:42;;;;;;;19.00;9.80;;;;;;;-0.26;99.04;102040.25;2573076;55;20109;-73
2020/12/05 03:49:10;;;;;;;17.48;9.60;;;;;;;-0.23;98.53;102029.75;2578084;55;20128;-73
2020/12/05 03:51:37;;;;;;;10.35;5.05;;;;;;;-0.17;99.00;102029.69;2578136;55;20135;-77
2020/12/05 03:54:05;;;;;;;15.52;7.43;;;;;;;-0.19;98.87;102026.22;2578033;55;20124;-73
2020/12/05 03:56:32;;;;;;;18.70;9.27;;;;;;;-0.18;98.60;102022.72;2577827;55;20165;-77
2020/12/05 03:58:59;;;;;;;15.77;8.32;;;;;;;-0.17;97.96;102029.69;2577978;55;20611;-77
2020/12/05 04:01:27;;;;;;;21.37;9.18;;;;;;;-0.19;98.59;102031.47;2577757;55;20627;-73
2020/12/05 04:03:54;;;;;;;17.40;9.68;;;;;;;-0.17;97.47;102019.19;2577954;55;20128;-73
2020/12/05 04:06:22;;;;;;;17.75;8.40;;;;;;;-0.12;97.64;102026.16;2578222;55;20111;-77
2020/12/05 04:08:50;;;;;;;18.20;8.35;;;;;;;-0.10;97.81;102024.38;2578916;55;20683;-77
2020/12/05 04:11:18;;;;;;;13.30;7.57;;;;;;;-0.09;97.93;102023.50;2578848;55;20133;-77
2020/12/05 04:13:45;;;;;;;17.37;8.35;;;;;;;-0.06;98.16;102018.22;2573817;55;20118;-73
2020/12/05 04:16:12;;;;;;;16.90;8.02;;;;;;;-0.04;97.62;102026.94;2578840;55;20619;-77
2020/12/05 04:18:40;;;;;;;14.90;8.40;;;;;;;-0.05;97.19;102026.09;2578763;55;20512;-76
2020/12/05 04:21:07;;;;;;;17.10;8.15;;;;;;;0.00;97.71;102020.81;2578846;55;20117;-73
2020/12/05 04:23:38;;;;;;;18.20;8.48;;;;;;;-0.01;97.54;102025.16;2578650;55;20188;-77
2020/12/05 04:26:06;;;;;;;17.45;7.93;;;;;;;0.05;97.08;102018.97;2578749;55;20109;-76
2020/12/05 04:28:33;;;;;;;14.68;7.82;;;;;;;0.02;97.22;102013.78;2578718;55;20126;-77
2020/12/05 04:31:00;;;;;;;18.23;8.15;;;;;;;0.01;97.71;102011.16;2578827;55;20123;-77
2020/12/05 04:33:28;;;;;;;17.75;7.80;;;;;;;-0.07;97.94;102017.34;2578718;55;20128;-73
2020/12/05 04:35:55;;;;;;;17.77;8.77;;;;;;;0.01;98.15;102016.41;2578599;55;20113;-73
2020/12/05 04:38:22;;;;;;;16.08;8.10;;;;;;;0.03;97.50;102025.12;2578500;55;20120;-73
2020/12/05 04:40:54;;;;;;;19.12;9.38;;;;;;;0.05;97.41;102016.34;2578575;55;20631;-77
2020/12/05 04:43:22;;;;;;;17.25;9.13;;;;;;;0.08;97.54;102018.94;2578831;55;20129;-77
2020/12/05 04:45:51;;;;;;;17.45;9.07;;;;;;;0.06;97.83;102027.75;2578598;55;20136;-77
2020/12/05 04:48:19;;;;;;;18.08;9.80;;;;;;;0.05;98.11;102024.22;2578697;55;20179;-73
2020/12/05 04:50:47;;;;;;;20.15;9.77;;;;;;;0.02;97.97;102018.12;2578830;55;20125;-77
2020/12/05 04:53:18;;;;;;;17.65;9.52;;;;;;;0.02;98.54;102019.03;2578575;55;20117;-73
2020/12/05 04:55:46;;;;;;;21.25;9.82;;;;;;;0.05;98.18;102021.59;2578402;55;20161;-73
2020/12/05 04:58:19;;;;;;;22.35;10.80;;;;;;;0.04;98.14;102021.62;2578776;55;20615;-76
2020/12/05 05:00:51;;;;;;;18.58;10.95;;;;;;;0.04;98.24;102021.62;2578499;55;20121;-75
2020/12/05 05:03:21;;;;;;;22.77;11.25;;;;;;;0.04;98.29;102019.00;2578444;55;20105;-73
2020/12/05 05:05:49;;;;;;;14.70;8.65;;;;;;;0.05;97.97;102021.59;2578842;55;20139;-77
2020/12/05 05:08:17;;;;;;;16.05;9.57;;;;;;;0.02;99.11;102019.03;2578635;55;20116;-72
2020/12/05 05:10:45;;;;;;;13.02;5.57;;;;;;;0.10;98.41;102025.06;2578536;55;20108;-77
2020/12/05 05:13:16;;;;;;;16.87;9.05;;;;;;;0.00;99.03;102015.56;2578308;55;20110;-73
2020/12/05 05:15:45;;;;;;;18.90;9.45;;;;;;;0.06;99.24;102028.59;2578538;55;20129;-73
2020/12/05 05:18:13;;;;;;;23.27;12.05;;;;;;;0.08;99.59;102034.69;2578438;55;20109;-73
2020/12/05 05:20:43;;;;;;;18.95;9.05;;;;;;;0.11;99.30;102024.19;2580233;55;20108;-76
2020/12/05 05:23:15;;;;;;;12.80;7.18;;;;;;;0.00;99.25;101997.19;2583704;55;20123;-76
2020/12/05 05:25:57;;;;;;;14.43;8.40;;;;;;;0.14;99.76;102033.75;2583897;55;20121;-74
2020/12/05 05:28:28;;;;;;;21.60;10.48;;;;;;;0.13;99.40;102032.91;2583717;55;20125;-73
2020/12/05 05:31:13;;;;;;;18.15;9.25;;;;;;;0.08;99.66;102029.44;2583652;55;20113;-78
2020/12/05 05:33:42;;;;;;;16.45;8.65;;;;;;;0.06;100.00;102041.72;2583954;55;20120;-73
2020/12/05 05:36:21;;;;;;;17.90;9.73;;;;;;;0.11;100.00;102028.56;2583603;55;20117;-77
2020/12/05 05:38:59;;;;;;;18.37;8.35;;;;;;;0.15;100.00;102038.16;2583463;55;20127;-77
2020/12/05 05:41:27;;;;;;;20.48;9.88;;;;;;;0.03;100.00;102026.00;2583401;55;20525;-72
2020/12/05 05:43:57;;;;;;;15.65;9.43;;;;;;;0.03;100.00;102031.25;2579837;55;20132;-74
2020/12/05 05:46:30;;;;;;;16.75;8.80;;;;;;;0.09;100.00;102030.31;2581120;55;20117;-76
2020/12/05 05:48:58;;;;;;;17.50;8.43;;;;;;;0.10;100.00;102024.19;2583371;55;20117;-73
2020/12/05 05:51:47;;;;;;;17.48;9.43;;;;;;;0.17;100.00;102031.13;2573041;55;20118;-77
2020/12/05 05:54:17;;;;;;;18.98;8.05;;;;;;;0.11;100.00;102029.44;2573475;55;20147;-78
2020/12/05 05:57:07;;;;;;;19.92;10.93;;;;;;;0.10;100.00;102026.81;2574439;55;20117;-78
2020/12/05 05:59:36;;;;;;;20.60;8.97;;;;;;;0.06;100.00;102025.97;2577722;55;20126;-73
2020/12/05 06:02:06;;;;;;;17.12;9.70;;;;;;;0.07;100.00;102026.84;2578476;55;20113;-73
2020/12/05 06:04:36;;;;;;;17.00;7.70;;;;;;;0.00;100.00;102026.06;2572991;55;20110;-73
2020/12/05 06:07:05;;;;;;;18.45;9.27;;;;;;;0.06;100.00;102031.22;2573159;55;20127;-73
2020/12/05 06:09:42;;;;;;;23.08;12.20;;;;;;;0.07;100.00;102035.59;2573312;55;20383;-78
2020/12/05 06:12:11;;;;;;;20.20;11.10;;;;;;;0.05;100.00;102031.22;2573374;55;20131;-72
2020/12/05 06:14:42;;;;;;;23.73;10.88;;;;;;;0.07;100.00;102024.22;2575877;55;20680;-72
2020/12/05 06:17:11;;;;;;;20.80;11.25;;;;;;;0.05;100.00;102018.09;2583585;55;20504;-78
2020/12/05 06:19:41;;;;;;;20.90;10.45;;;;;;;0.04;100.00;102039.97;2583275;55;20124;-73
2020/12/05 06:22:22;;;;;;;16.35;9.13;;;;;;;0.09;100.00;102036.44;2583189;55;20105;-78
2020/12/05 06:24:54;;;;;;;24.37;10.93;;;;;;;0.06;100.00;102044.34;2582404;55;20131;-78
2020/12/05 06:27:23;;;;;;;19.27;10.55;;;;;;;0.04;100.00;102043.50;2579656;55;20112;-79
2020/12/05 06:29:52;;;;;;;24.73;11.15;;;;;;;0.03;100.00;102038.25;2580372;55;20112;-73
2020/12/05 06:32:40;;;;;;;21.98;11.05;;;;;;;0.06;100.00;102041.72;2581834;55;20135;-78
2020/12/05 06:35:33;;;;;;;22.27;11.12;;;;;;;0.12;100.00;102044.28;2579450;55;20101;-77
2020/12/05 06:38:01;;;;;;;21.87;10.93;;;;;;;0.09;100.00;102036.44;2576610;55;20135;-78
2020/12/05 06:40:38;;;;;;;23.42;11.38;;;;;;;0.06;100.00;102036.47;2572263;55;20121;-78
2020/12/05 06:43:12;;;;;;;24.50;13.00;;;;;;;0.05;100.00;102039.97;2579211;55;20587;-78
2020/12/05 06:45:41;;;;;;;23.20;12.55;;;;;;;0.03;100.00;102036.50;2579886;55;20133;-76
2020/12/05 06:48:32;;;;;;;20.95;9.10;;;;;;;0.09;100.00;102041.69;2580200;55;20129;-78
2020/12/05 06:51:00;;;;;;;26.33;12.52;;;;;;;0.03;100.00;102035.62;2578879;55;20113;-76
2020/12/05 06:53:32;;;;;;;24.42;11.63;;;;;;;0.03;100.00;102036.50;2576913;55;20688;-76
2020/12/05 06:56:15;;;;;;;24.52;11.35;;;;;;;0.04;100.00;102043.50;2580548;55;20139;-77
2020/12/05 06:58:55;;;;;;;24.45;12.95;;;;;;;0.08;100.00;102041.72;2581095;55;20135;-76
2020/12/05 07:01:27;;;;;;;24.12;10.80;;;;;;;0.06;100.00;102036.47;2581782;55;20120;-77
2020/12/05 07:03:56;;;;;;;24.12;10.77;;;;;;;0.08;100.00;102033.84;2581104;55;20123;-77
2020/12/05 07:06:26;;;;;;;19.42;9.98;;;;;;;0.12;100.00;102035.53;2579274;55;20139;-74
2020/12/05 07:08:53;;;;;;;21.98;11.57;;;;;;;0.11;100.00;102042.56;2572131;55;20134;-75
2020/12/05 07:11:21;;;;;;;27.65;11.95;;;;;;;0.13;100.00;102048.66;2573958;55;20119;-75
2020/12/05 07:13:50;;;;;;;26.45;12.88;;;;;;;0.17;100.00;102049.50;2577744;55;20174;-75
2020/12/05 07:16:21;;;;;;;42.35;19.62;;;;;;;0.11;100.00;102045.19;2579795;55;20819;-75
2020/12/05 07:18:50;;;;;;;21.23;10.13;;;;;;;0.17;100.00;102060.00;2578367;55;20127;-75
2020/12/05 07:21:19;;;;;;;24.77;12.35;;;;;;;0.21;100.00;102056.44;2580738;55;20140;-75
2020/12/05 07:23:47;;;;;;;24.45;11.32;;;;;;;0.18;100.00;102064.34;2573626;55;20116;-75
2020/12/05 07:26:16;;;;;;;25.77;11.45;;;;;;;0.17;100.00;102069.63;2572425;55;20167;-77
2020/12/05 07:28:45;;;;;;;26.45;12.13;;;;;;;0.19;100.00;102073.09;2574332;55;20633;-78
2020/12/05 07:31:13;;;;;;;24.02;12.23;;;;;;;0.21;100.00;102081.84;2575280;55;20125;-76
2020/12/05 07:33:42;;;;;;;26.92;13.43;;;;;;;0.24;100.00;102087.91;2575147;55;20109;-76
2020/12/05 07:36:11;;;;;;;22.75;10.45;;;;;;;0.27;100.00;102092.25;2574874;55;20635;-77
2020/12/05 07:38:43;;;;;;;23.58;11.70;;;;;;;0.29;100.00;102090.50;2576223;55;20148;-77
2020/12/05 07:41:12;;;;;;;22.62;12.90;;;;;;;0.30;100.00;102092.25;2574532;55;20112;-76
2020/12/05 07:43:39;;;;;;;23.58;12.25;;;;;;;0.29;100.00;102094.87;2578902;55;20649;-77
2020/12/05 07:46:08;;;;;;;21.65;11.35;;;;;;;0.32;100.00;102095.72;2578961;55;20159;-77
2020/12/05 07:48:37;;;;;;;24.20;11.75;;;;;;;0.04;100.00;102046.13;2578269;55;20131;-77
2020/12/05 07:51:11;;;;;;;25.55;12.45;;;;;;;0.38;100.00;102100.03;2580231;55;20109;-77
2020/12/05 07:53:40;;;;;;;23.33;12.07;;;;;;;0.38;100.00;102116.66;2573481;55;20683;-71
2020/12/05 07:56:13;;;;;;;23.50;12.43;;;;;;;0.43;100.00;102113.97;2574311;55;20137;-71
2020/12/05 07:58:48;;;;;;;21.87;11.63;;;;;;;0.44;100.00;102118.34;2575962;55;20139;-71
2020/12/05 08:01:48;;;;;;;25.48;12.10;;;;;;;0.44;100.00;102123.59;2574068;55;20624;-77
2020/12/05 08:04:41;;;;;;;28.63;13.40;;;;;;;0.47;100.00;102118.34;2572934;55;20126;-77
2020/12/05 08:07:24;;;;;;;23.90;12.07;;;;;;;0.47;100.00;102120.06;2573386;55;20466;-76
2020/12/05 08:09:54;;;;;;;22.87;12.60;;;;;;;0.40;100.00;102120.16;2574451;55;20110;-70
2020/12/05 08:12:34;;;;;;;25.25;13.85;;;;;;;0.45;100.00;102121.84;2573351;55;20116;-70
2020/12/05 08:15:02;;;;;;;25.25;12.57;;;;;;;0.43;100.00;102131.50;2574257;55;20174;-70
2020/12/05 08:17:36;;;;;;;24.83;12.70;;;;;;;0.43;100.00;102121.84;2574629;55;20124;-75
2020/12/05 08:20:04;;;;;;;26.75;14.20;;;;;;;0.45;100.00;102132.38;2573178;55;20131;-78
2020/12/05 08:22:32;;;;;;;26.33;13.57;;;;;;;0.45;100.00;102132.38;2578267;55;20623;-76
2020/12/05 08:25:01;;;;;;;24.37;12.40;;;;;;;0.47;100.00;102127.97;2578662;55;20109;-76
2020/12/05 08:27:30;;;;;;;23.62;13.40;;;;;;;0.49;100.00;102134.06;2574423;55;20102;-75
2020/12/05 08:29:58;;;;;;;21.15;11.25;;;;;;;0.48;100.00;102135.84;2573714;55;20106;-76
2020/12/05 08:32:26;;;;;;;27.45;13.23;;;;;;;0.47;100.00;102133.22;2581039;55;20495;-75
2020/12/05 08:35:02;;;;;;;28.70;13.20;;;;;;;0.48;100.00;102132.31;2581561;55;20473;-75
2020/12/05 08:37:32;;;;;;;30.55;14.38;;;;;;;0.48;100.00;102137.56;2581626;55;20132;-74
2020/12/05 08:40:01;;;;;;;26.12;13.07;;;;;;;0.49;100.00;102134.06;2580280;55;20109;-74
2020/12/05 08:42:30;;;;;;;26.27;12.52;;;;;;;0.48;100.00;102138.47;2580940;55;20117;-76
2020/12/05 08:44:57;;;;;;;26.10;12.32;;;;;;;0.48;100.00;102145.44;2581228;55;20124;-76
2020/12/05 08:47:25;;;;;;;28.90;13.43;;;;;;;0.49;100.00;102140.19;2580797;55;20112;-72
2020/12/05 08:49:52;;;;;;;25.55;14.23;;;;;;;0.51;100.00;102137.56;2582547;55;20143;-79
2020/12/05 08:52:25;;;;;;;23.87;12.68;;;;;;;0.52;100.00;102144.56;2579880;55;20136;-75
2020/12/05 08:54:54;;;;;;;29.20;14.05;;;;;;;0.54;100.00;102142.78;2581129;55;20665;-75
2020/12/05 08:57:23;;;;;;;25.25;13.68;;;;;;;0.56;100.00;102141.00;2580948;55;20144;-75
2020/12/05 08:59:59;;;;;;;26.85;13.88;;;;;;;0.57;100.00;102132.22;2580611;55;20700;-78
2020/12/05 09:02:34;;;;;;;29.85;13.43;;;;;;;0.57;100.00;102145.37;2581089;55;20548;-76
2020/12/05 09:05:02;;;;;;;19.27;10.60;;;;;;;0.59;100.00;102140.09;2580154;55;20124;-77
2020/12/05 09:07:29;;;;;;;24.33;12.35;;;;;;;0.62;100.00;102140.06;2573034;55;20164;-76
2020/12/05 09:09:57;;;;;;;24.75;13.05;;;;;;;0.55;100.00;102145.41;2581225;55;20146;-77
2020/12/05 09:12:34;;;;;;;23.35;13.15;;;;;;;0.61;100.00;102154.97;2579308;55;20767;-75
2020/12/05 09:15:06;;;;;;;24.10;12.70;;;;;;;0.54;100.00;102137.53;2574147;55;20130;-75
2020/12/05 09:17:34;;;;;;;29.17;16.02;;;;;;;0.53;100.00;102135.78;2574335;55;20110;-75
2020/12/05 09:20:14;;;;;;;28.80;14.40;;;;;;;0.62;100.00;102140.06;2574239;55;20117;-76
2020/12/05 09:22:46;;;;;;;28.42;14.23;;;;;;;0.56;100.00;102143.62;2574936;55;20607;-76
2020/12/05 09:25:26;;;;;;;27.58;13.65;;;;;;;0.60;100.00;102145.34;2578432;55;20515;-76
2020/12/05 09:27:54;;;;;;;25.60;12.32;;;;;;;0.56;100.00;102151.50;2572765;55;20129;-76
2020/12/05 09:30:23;;;;;;;27.25;12.63;;;;;;;0.54;100.00;102153.28;2572540;55;20125;-76
2020/12/05 09:32:52;;;;;;;25.42;13.35;;;;;;;0.58;100.00;102152.34;2574677;55;20127;-76
2020/12/05 09:35:22;;;;;;;25.25;12.88;;;;;;;0.58;100.00;102152.34;2576261;55;20129;-77
2020/12/05 09:37:50;;;;;;;27.75;14.02;;;;;;;0.57;100.00;102158.50;2575817;55;20140;-76
2020/12/05 09:40:20;;;;;;;21.92;11.05;;;;;;;0.59;100.00;102169.00;2577388;55;20135;-75
2020/12/05 09:42:48;;;;;;;26.60;13.05;;;;;;;0.52;100.00;102149.81;2576213;55;20523;-75
2020/12/05 09:45:17;;;;;;;25.58;12.77;;;;;;;0.60;100.00;102163.75;2581227;55;20124;-77
2020/12/05 09:47:44;;;;;;;27.35;13.95;;;;;;;0.60;100.00;102163.75;2580632;55;20117;-74
2020/12/05 09:50:14;;;;;;;28.70;14.45;;;;;;;0.59;100.00;102155.87;2578647;55;20156;-74
2020/12/05 09:52:41;;;;;;;28.33;12.27;;;;;;;0.58;100.00;102157.59;2577724;55;20170;-75
2020/12/05 09:55:09;;;;;;;28.85;14.07;;;;;;;0.60;100.00;102157.59;2580701;55;20109;-75
2020/12/05 09:57:36;;;;;;;32.35;16.77;;;;;;;0.60;100.00;102150.59;2580842;55;20136;-74
2020/12/05 10:00:07;;;;;;;23.87;12.30;;;;;;;0.62;100.00;102151.47;2576467;55;20110;-74
2020/12/05 10:02:36;;;;;;;25.77;12.43;;;;;;;0.58;100.00;102144.47;2575913;55;20109;-75
2020/12/05 10:05:03;;;;;;;22.02;12.73;;;;;;;0.75;100.00;102136.44;2575468;55;20159;-76
2020/12/05 10:07:31;;;;;;;23.98;12.93;;;;;;;0.72;100.00;102146.09;2571065;55;20139;-75
2020/12/05 10:09:58;;;;;;;24.00;12.60;;;;;;;0.68;100.00;102143.50;2576079;55;20127;-76
2020/12/05 10:12:26;;;;;;;22.20;11.60;;;;;;;0.69;100.00;102147.84;2576437;55;20167;-75
2020/12/05 10:14:53;;;;;;;22.98;11.77;;;;;;;0.69;100.00;102152.25;2579995;55;20112;-76
2020/12/05 10:17:20;;;;;;;21.98;10.73;;;;;;;0.74;100.00;102153.06;2580891;55;20112;-77
2020/12/05 10:19:49;;;;;;;22.02;11.95;;;;;;;0.69;100.00;102161.00;2581154;55;20125;-77
2020/12/05 10:22:16;;;;;;;21.92;12.23;;;;;;;0.64;100.00;102152.31;2580874;55;20658;-76
2020/12/05 10:24:43;;;;;;;22.23;10.52;;;;;;;0.74;100.00;102147.81;2580564;55;20234;-77
2020/12/05 10:27:11;;;;;;;24.20;11.80;;;;;;;0.67;100.00;102151.41;2580000;55;20656;-78
2020/12/05 10:29:38;;;;;;;24.50;11.10;;;;;;;0.69;100.00;102150.47;2577978;55;20127;-74
2020/12/05 10:32:06;;;;;;;21.08;10.65;;;;;;;0.71;100.00;102144.38;2572386;55;20106;-71
2020/12/05 10:34:33;;;;;;;19.73;10.52;;;;;;;0.68;100.00;102140.84;2572998;55;20113;-77
2020/12/05 10:37:01;;;;;;;21.05;11.77;;;;;;;0.67;100.00;102133.88;2572889;55;20114;-78
2020/12/05 10:39:29;;;;;;;25.67;13.10;;;;;;;0.67;100.00;102133.88;2572870;55;20105;-77
2020/12/05 10:41:56;;;;;;;20.98;10.80;;;;;;;0.69;100.00;102142.59;2572201;55;20129;-71
2020/12/05 10:44:23;;;;;;;23.15;12.70;;;;;;;0.67;100.00;102123.34;2572413;55;20133;-72
2020/12/05 10:46:51;;;;;;;20.20;10.60;;;;;;;0.72;100.00;102138.22;2571783;55;20120;-72
2020/12/05 10:49:19;;;;;;;20.80;11.10;;;;;;;0.61;100.00;102123.44;2572822;55;20125;-72
2020/12/05 10:51:47;;;;;;;14.87;7.43;;;;;;;0.77;100.00;102139.91;2573413;55;20150;-72
2020/12/05 10:54:16;;;;;;;18.75;9.95;;;;;;;0.68;100.00;102140.84;2572616;55;20113;-78
2020/12/05 10:56:43;;;;;;;21.55;10.07;;;;;;;0.75;100.00;102146.94;2571465;55;20135;-77
2020/12/05 10:59:11;;;;;;;20.83;10.95;;;;;;;0.79;100.00;102143.38;2572519;55;20129;-77
2020/12/05 11:01:38;;;;;;;23.38;11.77;;;;;;;0.78;100.00;102138.13;2570068;55;20143;-77
2020/12/05 11:04:05;;;;;;;22.87;10.45;;;;;;;0.80;100.00;102133.72;2571657;55;20147;-78
2020/12/05 11:06:33;;;;;;;25.17;10.75;;;;;;;0.80;100.00;102142.50;2568299;55;20117;-77
2020/12/05 11:09:01;;;;;;;23.98;11.25;;;;;;;0.85;100.00;102145.06;2573723;55;20114;-76
2020/12/05 11:11:29;;;;;;;20.37;10.60;;;;;;;0.85;100.00;102155.56;2575309;55;20124;-77
2020/12/05 11:13:56;;;;;;;18.55;10.13;;;;;;;0.85;100.00;102149.44;2577128;55;20646;-77
2020/12/05 11:16:25;;;;;;;19.92;11.27;;;;;;;0.89;100.00;102159.03;2577856;55;21491;-77
2020/12/05 11:18:53;;;;;;;20.52;10.85;;;;;;;0.85;100.00;102167.84;2577626;55;20148;-77
2020/12/05 11:21:20;;;;;;;23.15;12.05;;;;;;;0.89;100.00;102170.41;2577930;55;20125;-77
2020/12/05 11:23:48;;;;;;;19.95;10.95;;;;;;;0.89;100.00;102157.28;2577560;55;20124;-78
2020/12/05 11:26:20;;;;;;;22.87;11.60;;;;;;;0.90;100.00;102155.53;2573705;55;20121;-78